sensor_id;sensor_type;location;lat;lon;timestamp;temperature;humidity
19279;DHT22;9773;47.062;15.446;2024-01-25T00:01:41;10.30;95.10
19279;DHT22;9773;47.062;15.446;2024-01-25T00:04:06;10.30;95.00
19279;DHT22;9773;47.062;15.446;2024-01-25T00:06:32;10.30;94.70
19279;DHT22;9773;47.062;15.446;2024-01-25T00:08:58;10.30;94.60
19279;DHT22;9773;47.062;15.446;2024-01-25T00:11:24;10.30;94.50
19279;DHT22;9773;47.062;15.446;2024-01-25T00:13:50;10.40;94.00
19279;DHT22;9773;47.062;15.446;2024-01-25T00:16:16;10.40;93.80
19279;DHT22;9773;47.062;15.446;2024-01-25T00:18:44;10.40;94.00
19279;DHT22;9773;47.062;15.446;2024-01-25T00:21:10;10.30;93.90
19279;DHT22;9773;47.062;15.446;2024-01-25T00:23:37;10.30;93.50
19279;DHT22;9773;47.062;15.446;2024-01-25T00:26:04;10.40;93.40
19279;DHT22;9773;47.062;15.446;2024-01-25T00:28:30;10.40;93.30
19279;DHT22;9773;47.062;15.446;2024-01-25T00:30:55;10.30;93.30
19279;DHT22;9773;47.062;15.446;2024-01-25T00:33:24;10.50;92.80
19279;DHT22;9773;47.062;15.446;2024-01-25T00:35:50;10.60;92.50
19279;DHT22;9773;47.062;15.446;2024-01-25T00:38:16;10.80;92.20
19279;DHT22;9773;47.062;15.446;2024-01-25T00:40:42;10.80;92.10
19279;DHT22;9773;47.062;15.446;2024-01-25T00:43:09;10.80;91.90
19279;DHT22;9773;47.062;15.446;2024-01-25T00:45:35;10.80;91.90
19279;DHT22;9773;47.062;15.446;2024-01-25T00:48:01;10.60;91.90
19279;DHT22;9773;47.062;15.446;2024-01-25T00:50:27;10.70;91.80
19279;DHT22;9773;47.062;15.446;2024-01-25T00:53:09;10.70;91.80
19279;DHT22;9773;47.062;15.446;2024-01-25T00:55:35;10.70;91.60
19279;DHT22;9773;47.062;15.446;2024-01-25T00:58:01;10.80;91.60
19279;DHT22;9773;47.062;15.446;2024-01-25T01:00:28;10.70;91.90
19279;DHT22;9773;47.062;15.446;2024-01-25T01:02:59;10.50;91.80
19279;DHT22;9773;47.062;15.446;2024-01-25T01:05:28;10.60;91.70
19279;DHT22;9773;47.062;15.446;2024-01-25T01:07:56;10.60;91.50
19279;DHT22;9773;47.062;15.446;2024-01-25T01:10:22;10.60;91.60
19279;DHT22;9773;47.062;15.446;2024-01-25T01:12:51;10.60;91.50
19279;DHT22;9773;47.062;15.446;2024-01-25T01:15:19;10.70;91.40
19279;DHT22;9773;47.062;15.446;2024-01-25T01:17:44;10.60;91.40
19279;DHT22;9773;47.062;15.446;2024-01-25T01:20:10;10.60;91.40
19279;DHT22;9773;47.062;15.446;2024-01-25T01:22:36;10.60;91.30
19279;DHT22;9773;47.062;15.446;2024-01-25T01:25:02;10.60;91.30
19279;DHT22;9773;47.062;15.446;2024-01-25T01:27:29;10.50;91.40
19279;DHT22;9773;47.062;15.446;2024-01-25T01:29:55;10.80;91.00
19279;DHT22;9773;47.062;15.446;2024-01-25T01:32:23;10.90;90.80
19279;DHT22;9773;47.062;15.446;2024-01-25T01:34:49;11.00;90.80
19279;DHT22;9773;47.062;15.446;2024-01-25T01:37:15;10.90;90.90
19279;DHT22;9773;47.062;15.446;2024-01-25T01:39:41;10.80;90.80
19279;DHT22;9773;47.062;15.446;2024-01-25T01:42:07;10.90;90.70
19279;DHT22;9773;47.062;15.446;2024-01-25T01:59:13;10.90;97.10
19279;DHT22;9773;47.062;15.446;2024-01-25T02:01:38;10.90;91.90
19279;DHT22;9773;47.062;15.446;2024-01-25T02:04:05;10.80;92.00
19279;DHT22;9773;47.062;15.446;2024-01-25T02:06:31;10.80;91.90
19279;DHT22;9773;47.062;15.446;2024-01-25T02:08:57;10.80;92.00
19279;DHT22;9773;47.062;15.446;2024-01-25T02:11:27;10.80;91.80
19279;DHT22;9773;47.062;15.446;2024-01-25T02:13:53;10.90;91.70
19279;DHT22;9773;47.062;15.446;2024-01-25T02:16:19;10.70;91.80
19279;DHT22;9773;47.062;15.446;2024-01-25T02:18:46;10.70;91.70
19279;DHT22;9773;47.062;15.446;2024-01-25T02:21:12;10.70;91.60
19279;DHT22;9773;47.062;15.446;2024-01-25T02:23:38;10.70;91.60
19279;DHT22;9773;47.062;15.446;2024-01-25T02:26:04;10.70;91.40
19279;DHT22;9773;47.062;15.446;2024-01-25T02:28:29;10.80;91.40
19279;DHT22;9773;47.062;15.446;2024-01-25T02:30:55;10.80;91.30
19279;DHT22;9773;47.062;15.446;2024-01-25T02:33:21;10.90;91.10
19279;DHT22;9773;47.062;15.446;2024-01-25T02:35:47;10.90;91.10
19279;DHT22;9773;47.062;15.446;2024-01-25T02:38:13;11.10;90.80
19279;DHT22;9773;47.062;15.446;2024-01-25T02:40:39;11.10;90.70
19279;DHT22;9773;47.062;15.446;2024-01-25T02:43:05;10.90;90.70
19279;DHT22;9773;47.062;15.446;2024-01-25T02:45:31;11.00;90.60
19279;DHT22;9773;47.062;15.446;2024-01-25T02:47:56;10.90;90.70
19279;DHT22;9773;47.062;15.446;2024-01-25T02:50:22;10.80;90.80
19279;DHT22;9773;47.062;15.446;2024-01-25T02:52:48;10.90;90.60
19279;DHT22;9773;47.062;15.446;2024-01-25T02:55:23;11.10;90.60
19279;DHT22;9773;47.062;15.446;2024-01-25T02:57:49;11.10;90.60
19279;DHT22;9773;47.062;15.446;2024-01-25T03:00:15;11.00;90.30
19279;DHT22;9773;47.062;15.446;2024-01-25T03:02:41;11.10;90.20
19279;DHT22;9773;47.062;15.446;2024-01-25T03:05:07;11.10;90.30
19279;DHT22;9773;47.062;15.446;2024-01-25T03:07:32;11.00;90.30
19279;DHT22;9773;47.062;15.446;2024-01-25T03:09:58;11.20;90.10
19279;DHT22;9773;47.062;15.446;2024-01-25T03:12:24;11.20;90.20
19279;DHT22;9773;47.062;15.446;2024-01-25T03:14:50;11.10;90.10
19279;DHT22;9773;47.062;15.446;2024-01-25T03:17:16;11.10;89.40
19279;DHT22;9773;47.062;15.446;2024-01-25T03:19:41;11.00;89.30
19279;DHT22;9773;47.062;15.446;2024-01-25T03:22:07;11.10;89.10
19279;DHT22;9773;47.062;15.446;2024-01-25T03:24:33;11.00;89.10
19279;DHT22;9773;47.062;15.446;2024-01-25T03:26:58;11.10;88.50
19279;DHT22;9773;47.062;15.446;2024-01-25T03:29:24;11.10;88.30
19279;DHT22;9773;47.062;15.446;2024-01-25T03:31:50;11.00;88.10
19279;DHT22;9773;47.062;15.446;2024-01-25T03:34:16;10.90;87.90
19279;DHT22;9773;47.062;15.446;2024-01-25T03:36:41;11.00;87.90
19279;DHT22;9773;47.062;15.446;2024-01-25T03:39:08;11.00;88.40
19279;DHT22;9773;47.062;15.446;2024-01-25T03:41:34;10.80;87.90
19279;DHT22;9773;47.062;15.446;2024-01-25T03:44:00;10.80;88.40
19279;DHT22;9773;47.062;15.446;2024-01-25T03:46:25;10.80;88.20
19279;DHT22;9773;47.062;15.446;2024-01-25T03:48:51;10.70;87.50
19279;DHT22;9773;47.062;15.446;2024-01-25T03:51:17;10.70;88.10
19279;DHT22;9773;47.062;15.446;2024-01-25T03:53:43;10.70;87.90
19279;DHT22;9773;47.062;15.446;2024-01-25T03:56:12;10.60;88.20
19279;DHT22;9773;47.062;15.446;2024-01-25T03:58:40;10.50;85.60
19279;DHT22;9773;47.062;15.446;2024-01-25T04:01:05;10.50;85.60
19279;DHT22;9773;47.062;15.446;2024-01-25T04:03:31;10.60;85.30
19279;DHT22;9773;47.062;15.446;2024-01-25T04:05:57;10.70;85.60
19279;DHT22;9773;47.062;15.446;2024-01-25T04:08:23;10.80;85.60
19279;DHT22;9773;47.062;15.446;2024-01-25T04:10:48;10.70;85.60
19279;DHT22;9773;47.062;15.446;2024-01-25T04:13:14;10.70;85.90
19279;DHT22;9773;47.062;15.446;2024-01-25T04:15:40;10.60;86.10
19279;DHT22;9773;47.062;15.446;2024-01-25T04:18:06;10.50;86.70
19279;DHT22;9773;47.062;15.446;2024-01-25T04:20:33;10.40;87.00
19279;DHT22;9773;47.062;15.446;2024-01-25T04:22:59;10.40;87.20
19279;DHT22;9773;47.062;15.446;2024-01-25T04:25:25;10.40;87.30
19279;DHT22;9773;47.062;15.446;2024-01-25T04:27:51;10.40;87.60
19279;DHT22;9773;47.062;15.446;2024-01-25T04:30:16;10.40;88.00
19279;DHT22;9773;47.062;15.446;2024-01-25T04:32:42;10.30;88.00
19279;DHT22;9773;47.062;15.446;2024-01-25T04:35:08;10.30;88.30
19279;DHT22;9773;47.062;15.446;2024-01-25T04:37:35;10.20;88.50
19279;DHT22;9773;47.062;15.446;2024-01-25T04:40:01;10.10;88.80
19279;DHT22;9773;47.062;15.446;2024-01-25T04:42:27;10.10;88.90
19279;DHT22;9773;47.062;15.446;2024-01-25T04:44:53;10.00;89.40
19279;DHT22;9773;47.062;15.446;2024-01-25T04:47:19;9.90;90.30
19279;DHT22;9773;47.062;15.446;2024-01-25T04:49:44;9.80;90.50
19279;DHT22;9773;47.062;15.446;2024-01-25T04:52:11;9.90;90.60
19279;DHT22;9773;47.062;15.446;2024-01-25T04:54:37;9.80;90.80
19279;DHT22;9773;47.062;15.446;2024-01-25T04:57:03;9.70;90.80
19279;DHT22;9773;47.062;15.446;2024-01-25T04:59:32;9.80;90.90
19279;DHT22;9773;47.062;15.446;2024-01-25T05:01:59;9.70;91.10
19279;DHT22;9773;47.062;15.446;2024-01-25T05:04:25;9.80;91.20
19279;DHT22;9773;47.062;15.446;2024-01-25T05:06:50;9.80;91.30
19279;DHT22;9773;47.062;15.446;2024-01-25T05:09:16;9.80;91.30
19279;DHT22;9773;47.062;15.446;2024-01-25T05:11:42;9.70;91.50
19279;DHT22;9773;47.062;15.446;2024-01-25T05:14:08;9.60;91.60
19279;DHT22;9773;47.062;15.446;2024-01-25T05:16:34;9.60;91.80
19279;DHT22;9773;47.062;15.446;2024-01-25T05:19:03;9.50;92.00
19279;DHT22;9773;47.062;15.446;2024-01-25T05:21:29;9.50;92.10
19279;DHT22;9773;47.062;15.446;2024-01-25T05:23:54;9.40;92.20
19279;DHT22;9773;47.062;15.446;2024-01-25T05:26:20;9.40;92.20
19279;DHT22;9773;47.062;15.446;2024-01-25T05:28:46;9.40;92.40
19279;DHT22;9773;47.062;15.446;2024-01-25T05:31:12;9.60;92.40
19279;DHT22;9773;47.062;15.446;2024-01-25T05:33:42;9.60;92.40
19279;DHT22;9773;47.062;15.446;2024-01-25T05:36:08;9.50;92.50
19279;DHT22;9773;47.062;15.446;2024-01-25T05:38:34;9.40;92.80
19279;DHT22;9773;47.062;15.446;2024-01-25T05:41:00;9.30;93.00
19279;DHT22;9773;47.062;15.446;2024-01-25T05:43:28;9.30;93.20
19279;DHT22;9773;47.062;15.446;2024-01-25T05:45:54;9.30;93.30
19279;DHT22;9773;47.062;15.446;2024-01-25T05:48:20;9.30;93.40
19279;DHT22;9773;47.062;15.446;2024-01-25T05:50:45;9.10;93.70
19279;DHT22;9773;47.062;15.446;2024-01-25T05:53:11;9.00;93.90
19279;DHT22;9773;47.062;15.446;2024-01-25T05:55:37;9.00;94.10
19279;DHT22;9773;47.062;15.446;2024-01-25T05:58:03;9.10;94.20
19279;DHT22;9773;47.062;15.446;2024-01-25T06:00:28;9.00;94.20
19279;DHT22;9773;47.062;15.446;2024-01-25T06:02:54;9.10;94.50
19279;DHT22;9773;47.062;15.446;2024-01-25T06:05:20;9.00;94.70
19279;DHT22;9773;47.062;15.446;2024-01-25T06:07:46;9.00;94.80
19279;DHT22;9773;47.062;15.446;2024-01-25T06:10:12;8.90;94.90
19279;DHT22;9773;47.062;15.446;2024-01-25T06:12:38;8.90;95.00
19279;DHT22;9773;47.062;15.446;2024-01-25T06:15:04;8.90;95.10
19279;DHT22;9773;47.062;15.446;2024-01-25T06:17:30;8.80;95.30
19279;DHT22;9773;47.062;15.446;2024-01-25T06:19:56;8.80;95.40
19279;DHT22;9773;47.062;15.446;2024-01-25T06:22:23;8.80;95.40
19279;DHT22;9773;47.062;15.446;2024-01-25T06:24:48;8.90;95.50
19279;DHT22;9773;47.062;15.446;2024-01-25T06:27:14;8.80;95.50
19279;DHT22;9773;47.062;15.446;2024-01-25T06:29:40;8.80;95.70
19279;DHT22;9773;47.062;15.446;2024-01-25T06:32:06;8.80;95.80
19279;DHT22;9773;47.062;15.446;2024-01-25T06:34:32;8.70;95.80
19279;DHT22;9773;47.062;15.446;2024-01-25T06:36:58;8.80;95.80
19279;DHT22;9773;47.062;15.446;2024-01-25T06:39:23;8.80;95.90
19279;DHT22;9773;47.062;15.446;2024-01-25T06:41:49;8.80;96.00
19279;DHT22;9773;47.062;15.446;2024-01-25T06:44:16;8.80;96.00
19279;DHT22;9773;47.062;15.446;2024-01-25T06:46:42;8.80;96.30
19279;DHT22;9773;47.062;15.446;2024-01-25T06:49:08;8.80;96.40
19279;DHT22;9773;47.062;15.446;2024-01-25T06:51:34;8.80;96.20
19279;DHT22;9773;47.062;15.446;2024-01-25T06:54:00;8.90;96.20
19279;DHT22;9773;47.062;15.446;2024-01-25T06:56:25;8.90;96.40
19279;DHT22;9773;47.062;15.446;2024-01-25T06:58:51;8.80;96.40
19279;DHT22;9773;47.062;15.446;2024-01-25T07:01:21;8.80;96.60
19279;DHT22;9773;47.062;15.446;2024-01-25T07:03:47;8.80;96.70
19279;DHT22;9773;47.062;15.446;2024-01-25T07:06:13;8.70;96.80
19279;DHT22;9773;47.062;15.446;2024-01-25T07:08:39;8.70;97.00
19279;DHT22;9773;47.062;15.446;2024-01-25T07:11:04;8.80;97.00
19279;DHT22;9773;47.062;15.446;2024-01-25T07:13:32;8.70;97.20
19279;DHT22;9773;47.062;15.446;2024-01-25T07:15:57;8.70;97.30
19279;DHT22;9773;47.062;15.446;2024-01-25T07:18:23;8.80;97.40
19279;DHT22;9773;47.062;15.446;2024-01-25T07:20:50;8.80;97.50
19279;DHT22;9773;47.062;15.446;2024-01-25T07:23:17;8.80;97.50
19279;DHT22;9773;47.062;15.446;2024-01-25T07:25:44;8.90;97.50
19279;DHT22;9773;47.062;15.446;2024-01-25T07:28:09;8.80;97.70
19279;DHT22;9773;47.062;15.446;2024-01-25T07:30:35;8.80;97.80
19279;DHT22;9773;47.062;15.446;2024-01-25T07:33:01;8.80;98.00
19279;DHT22;9773;47.062;15.446;2024-01-25T07:35:27;8.70;98.10
19279;DHT22;9773;47.062;15.446;2024-01-25T07:37:52;8.70;98.20
19279;DHT22;9773;47.062;15.446;2024-01-25T07:40:22;8.80;98.20
19279;DHT22;9773;47.062;15.446;2024-01-25T07:42:48;8.90;98.30
19279;DHT22;9773;47.062;15.446;2024-01-25T07:45:14;8.80;98.10
19279;DHT22;9773;47.062;15.446;2024-01-25T07:47:43;8.80;98.20
19279;DHT22;9773;47.062;15.446;2024-01-25T07:50:10;8.90;98.10
19279;DHT22;9773;47.062;15.446;2024-01-25T07:52:35;8.90;98.10
19279;DHT22;9773;47.062;15.446;2024-01-25T07:55:01;8.90;98.00
19279;DHT22;9773;47.062;15.446;2024-01-25T07:57:27;8.90;97.90
19279;DHT22;9773;47.062;15.446;2024-01-25T07:59:52;9.00;97.90
19279;DHT22;9773;47.062;15.446;2024-01-25T08:02:18;9.00;98.00
19279;DHT22;9773;47.062;15.446;2024-01-25T08:04:44;9.00;98.00
19279;DHT22;9773;47.062;15.446;2024-01-25T08:07:10;9.00;97.90
19279;DHT22;9773;47.062;15.446;2024-01-25T08:09:36;9.10;97.80
19279;DHT22;9773;47.062;15.446;2024-01-25T08:12:02;9.20;97.50
19279;DHT22;9773;47.062;15.446;2024-01-25T08:14:28;9.30;97.40
19279;DHT22;9773;47.062;15.446;2024-01-25T08:16:53;9.30;97.40
19279;DHT22;9773;47.062;15.446;2024-01-25T08:19:20;9.30;97.60
19279;DHT22;9773;47.062;15.446;2024-01-25T08:21:46;9.30;97.60
19279;DHT22;9773;47.062;15.446;2024-01-25T08:24:12;9.30;97.40
19279;DHT22;9773;47.062;15.446;2024-01-25T08:26:38;9.40;97.40
19279;DHT22;9773;47.062;15.446;2024-01-25T08:29:04;9.40;97.50
19279;DHT22;9773;47.062;15.446;2024-01-25T08:31:30;9.40;97.30
19279;DHT22;9773;47.062;15.446;2024-01-25T08:33:55;9.40;97.40
19279;DHT22;9773;47.062;15.446;2024-01-25T08:36:21;9.40;97.40
19279;DHT22;9773;47.062;15.446;2024-01-25T08:38:48;9.40;97.40
19279;DHT22;9773;47.062;15.446;2024-01-25T08:41:14;9.50;97.30
19279;DHT22;9773;47.062;15.446;2024-01-25T08:43:42;9.50;97.20
19279;DHT22;9773;47.062;15.446;2024-01-25T08:46:08;9.50;97.10
19279;DHT22;9773;47.062;15.446;2024-01-25T08:48:34;9.50;97.00
19279;DHT22;9773;47.062;15.446;2024-01-25T08:51:00;9.60;97.00
19279;DHT22;9773;47.062;15.446;2024-01-25T08:53:27;9.60;96.90
19279;DHT22;9773;47.062;15.446;2024-01-25T08:55:56;9.60;96.80
19279;DHT22;9773;47.062;15.446;2024-01-25T08:58:22;9.70;96.80
19279;DHT22;9773;47.062;15.446;2024-01-25T09:00:49;9.70;96.70
19279;DHT22;9773;47.062;15.446;2024-01-25T09:03:15;9.60;96.90
19279;DHT22;9773;47.062;15.446;2024-01-25T09:05:41;9.60;96.80
19279;DHT22;9773;47.062;15.446;2024-01-25T09:08:12;9.60;97.00
19279;DHT22;9773;47.062;15.446;2024-01-25T09:10:39;9.70;96.70
19279;DHT22;9773;47.062;15.446;2024-01-25T09:13:07;9.70;96.00
19279;DHT22;9773;47.062;15.446;2024-01-25T09:15:39;9.80;95.30
19279;DHT22;9773;47.062;15.446;2024-01-25T09:18:06;9.80;94.90
19279;DHT22;9773;47.062;15.446;2024-01-25T09:20:31;9.90;94.60
19279;DHT22;9773;47.062;15.446;2024-01-25T09:22:57;10.00;94.10
19279;DHT22;9773;47.062;15.446;2024-01-25T09:25:23;10.00;93.70
19279;DHT22;9773;47.062;15.446;2024-01-25T09:27:49;10.10;93.20
19279;DHT22;9773;47.062;15.446;2024-01-25T09:30:15;10.10;93.10
19279;DHT22;9773;47.062;15.446;2024-01-25T09:32:41;10.10;93.00
19279;DHT22;9773;47.062;15.446;2024-01-25T09:35:07;10.20;93.00
19279;DHT22;9773;47.062;15.446;2024-01-25T09:37:33;10.20;92.90
19279;DHT22;9773;47.062;15.446;2024-01-25T09:39:59;10.20;92.60
19279;DHT22;9773;47.062;15.446;2024-01-25T09:42:25;10.20;92.30
19279;DHT22;9773;47.062;15.446;2024-01-25T09:44:52;10.40;92.30
19279;DHT22;9773;47.062;15.446;2024-01-25T09:47:19;10.30;92.10
19279;DHT22;9773;47.062;15.446;2024-01-25T09:49:46;10.40;92.10
19279;DHT22;9773;47.062;15.446;2024-01-25T09:52:13;9.50;92.50
19279;DHT22;9773;47.062;15.446;2024-01-25T09:54:39;10.40;92.20
19279;DHT22;9773;47.062;15.446;2024-01-25T09:57:16;10.40;92.00
19279;DHT22;9773;47.062;15.446;2024-01-25T09:59:43;10.40;92.00
19279;DHT22;9773;47.062;15.446;2024-01-25T10:02:10;10.30;91.90
19279;DHT22;9773;47.062;15.446;2024-01-25T10:04:36;10.40;91.60
19279;DHT22;9773;47.062;15.446;2024-01-25T10:07:02;10.50;91.30
19279;DHT22;9773;47.062;15.446;2024-01-25T10:09:31;10.60;90.80
19279;DHT22;9773;47.062;15.446;2024-01-25T10:12:03;10.60;91.00
19279;DHT22;9773;47.062;15.446;2024-01-25T10:14:29;10.50;90.90
19279;DHT22;9773;47.062;15.446;2024-01-25T10:16:54;10.20;90.80
19279;DHT22;9773;47.062;15.446;2024-01-25T10:19:20;10.50;90.80
19279;DHT22;9773;47.062;15.446;2024-01-25T10:21:46;10.50;90.90
19279;DHT22;9773;47.062;15.446;2024-01-25T10:24:12;10.50;90.80
19279;DHT22;9773;47.062;15.446;2024-01-25T10:26:41;10.60;90.70
19279;DHT22;9773;47.062;15.446;2024-01-25T10:29:08;10.60;90.50
19279;DHT22;9773;47.062;15.446;2024-01-25T10:31:38;10.70;90.30
19279;DHT22;9773;47.062;15.446;2024-01-25T10:34:26;10.70;90.00
19279;DHT22;9773;47.062;15.446;2024-01-25T10:36:53;10.80;89.90
19279;DHT22;9773;47.062;15.446;2024-01-25T10:39:19;10.80;88.80
19279;DHT22;9773;47.062;15.446;2024-01-25T10:41:46;10.90;87.20
19279;DHT22;9773;47.062;15.446;2024-01-25T10:44:19;10.90;86.50
19279;DHT22;9773;47.062;15.446;2024-01-25T10:46:49;10.90;86.30
19279;DHT22;9773;47.062;15.446;2024-01-25T10:49:18;11.00;86.20
19279;DHT22;9773;47.062;15.446;2024-01-25T10:51:44;11.00;86.00
19279;DHT22;9773;47.062;15.446;2024-01-25T10:54:14;11.00;86.00
19279;DHT22;9773;47.062;15.446;2024-01-25T10:56:48;11.10;85.50
19279;DHT22;9773;47.062;15.446;2024-01-25T10:59:16;11.10;85.30
19279;DHT22;9773;47.062;15.446;2024-01-25T11:01:44;11.00;85.50
19279;DHT22;9773;47.062;15.446;2024-01-25T11:04:18;11.00;85.20
19279;DHT22;9773;47.062;15.446;2024-01-25T11:06:47;11.10;84.70
19279;DHT22;9773;47.062;15.446;2024-01-25T11:09:18;11.20;84.10
19279;DHT22;9773;47.062;15.446;2024-01-25T11:11:48;11.10;83.90
19279;DHT22;9773;47.062;15.446;2024-01-25T11:14:16;11.20;84.20
19279;DHT22;9773;47.062;15.446;2024-01-25T11:16:43;11.20;83.70
19279;DHT22;9773;47.062;15.446;2024-01-25T11:19:22;11.10;83.00
19279;DHT22;9773;47.062;15.446;2024-01-25T11:21:49;11.30;82.60
19279;DHT22;9773;47.062;15.446;2024-01-25T11:24:25;11.30;82.60
19279;DHT22;9773;47.062;15.446;2024-01-25T11:26:53;11.30;81.60
19279;DHT22;9773;47.062;15.446;2024-01-25T11:29:21;11.40;80.90
19279;DHT22;9773;47.062;15.446;2024-01-25T11:31:49;11.40;81.10
19279;DHT22;9773;47.062;15.446;2024-01-25T11:34:16;11.40;79.60
19279;DHT22;9773;47.062;15.446;2024-01-25T11:36:44;11.40;79.20
19279;DHT22;9773;47.062;15.446;2024-01-25T11:39:13;11.50;79.10
19279;DHT22;9773;47.062;15.446;2024-01-25T11:41:42;11.40;79.10
19279;DHT22;9773;47.062;15.446;2024-01-25T11:44:10;11.40;78.70
19279;DHT22;9773;47.062;15.446;2024-01-25T11:46:36;11.50;78.50
19279;DHT22;9773;47.062;15.446;2024-01-25T11:49:02;11.60;79.00
19279;DHT22;9773;47.062;15.446;2024-01-25T11:51:28;11.50;79.00
19279;DHT22;9773;47.062;15.446;2024-01-25T11:53:53;11.60;78.80
19279;DHT22;9773;47.062;15.446;2024-01-25T11:56:23;11.60;78.60
19279;DHT22;9773;47.062;15.446;2024-01-25T11:58:50;11.60;78.40
19279;DHT22;9773;47.062;15.446;2024-01-25T12:01:17;11.60;78.50
19279;DHT22;9773;47.062;15.446;2024-01-25T12:03:45;11.60;78.70
19279;DHT22;9773;47.062;15.446;2024-01-25T12:06:12;11.60;79.30
19279;DHT22;9773;47.062;15.446;2024-01-25T12:08:38;11.60;79.60
19279;DHT22;9773;47.062;15.446;2024-01-25T12:11:08;11.60;79.70
19279;DHT22;9773;47.062;15.446;2024-01-25T12:13:41;11.60;78.90
19279;DHT22;9773;47.062;15.446;2024-01-25T12:16:09;11.60;79.60
19279;DHT22;9773;47.062;15.446;2024-01-25T12:18:35;11.60;79.60
19279;DHT22;9773;47.062;15.446;2024-01-25T12:21:03;11.60;80.00
19279;DHT22;9773;47.062;15.446;2024-01-25T12:23:32;11.60;79.80
19279;DHT22;9773;47.062;15.446;2024-01-25T12:26:03;11.60;80.30
19279;DHT22;9773;47.062;15.446;2024-01-25T12:28:30;11.60;79.70
19279;DHT22;9773;47.062;15.446;2024-01-25T12:30:56;11.60;79.80
19279;DHT22;9773;47.062;15.446;2024-01-25T12:33:22;11.60;80.20
19279;DHT22;9773;47.062;15.446;2024-01-25T12:35:48;11.70;79.70
19279;DHT22;9773;47.062;15.446;2024-01-25T12:38:14;11.60;79.40
19279;DHT22;9773;47.062;15.446;2024-01-25T12:40:42;11.60;79.60
19279;DHT22;9773;47.062;15.446;2024-01-25T12:43:08;11.50;80.00
19279;DHT22;9773;47.062;15.446;2024-01-25T12:45:34;11.60;79.70
19279;DHT22;9773;47.062;15.446;2024-01-25T12:47:59;11.50;79.50
19279;DHT22;9773;47.062;15.446;2024-01-25T12:50:25;11.50;79.20
19279;DHT22;9773;47.062;15.446;2024-01-25T12:52:51;11.60;79.60
19279;DHT22;9773;47.062;15.446;2024-01-25T12:55:17;11.60;79.20
19279;DHT22;9773;47.062;15.446;2024-01-25T12:57:42;11.60;79.50
19279;DHT22;9773;47.062;15.446;2024-01-25T13:00:08;11.60;79.30
19279;DHT22;9773;47.062;15.446;2024-01-25T13:02:34;11.60;79.10
19279;DHT22;9773;47.062;15.446;2024-01-25T13:05:00;11.60;79.00
19279;DHT22;9773;47.062;15.446;2024-01-25T13:07:27;11.70;79.40
19279;DHT22;9773;47.062;15.446;2024-01-25T13:09:53;11.60;79.40
19279;DHT22;9773;47.062;15.446;2024-01-25T13:12:18;11.60;79.40
19279;DHT22;9773;47.062;15.446;2024-01-25T13:14:44;11.60;78.50
19279;DHT22;9773;47.062;15.446;2024-01-25T13:17:10;11.70;78.50
19279;DHT22;9773;47.062;15.446;2024-01-25T13:19:36;11.80;78.20
19279;DHT22;9773;47.062;15.446;2024-01-25T13:22:01;11.80;78.30
19279;DHT22;9773;47.062;15.446;2024-01-25T13:24:27;11.70;78.30
19279;DHT22;9773;47.062;15.446;2024-01-25T13:26:54;11.70;78.20
19279;DHT22;9773;47.062;15.446;2024-01-25T13:29:20;11.60;78.70
19279;DHT22;9773;47.062;15.446;2024-01-25T13:31:46;11.60;78.70
19279;DHT22;9773;47.062;15.446;2024-01-25T13:34:13;11.60;78.50
19279;DHT22;9773;47.062;15.446;2024-01-25T13:36:38;11.60;78.60
19279;DHT22;9773;47.062;15.446;2024-01-25T13:39:05;11.60;78.10
19279;DHT22;9773;47.062;15.446;2024-01-25T13:41:33;11.60;77.80
19279;DHT22;9773;47.062;15.446;2024-01-25T13:44:00;11.70;77.90
19279;DHT22;9773;47.062;15.446;2024-01-25T13:46:27;11.70;78.10
19279;DHT22;9773;47.062;15.446;2024-01-25T13:48:53;11.60;77.50
19279;DHT22;9773;47.062;15.446;2024-01-25T13:51:20;11.70;77.40
19279;DHT22;9773;47.062;15.446;2024-01-25T13:53:46;11.60;77.40
19279;DHT22;9773;47.062;15.446;2024-01-25T13:56:13;11.70;76.00
19279;DHT22;9773;47.062;15.446;2024-01-25T13:58:40;11.70;75.80
19279;DHT22;9773;47.062;15.446;2024-01-25T14:01:07;11.70;75.50
19279;DHT22;9773;47.062;15.446;2024-01-25T14:03:32;11.70;76.00
19279;DHT22;9773;47.062;15.446;2024-01-25T14:06:00;11.70;75.60
19279;DHT22;9773;47.062;15.446;2024-01-25T14:08:30;11.70;75.30
19279;DHT22;9773;47.062;15.446;2024-01-25T14:10:57;11.60;75.20
19279;DHT22;9773;47.062;15.446;2024-01-25T14:13:25;11.70;74.60
19279;DHT22;9773;47.062;15.446;2024-01-25T14:15:50;11.70;73.90
19279;DHT22;9773;47.062;15.446;2024-01-25T14:18:17;11.80;73.80
19279;DHT22;9773;47.062;15.446;2024-01-25T14:20:42;11.80;73.70
19279;DHT22;9773;47.062;15.446;2024-01-25T14:23:09;11.80;72.80
19279;DHT22;9773;47.062;15.446;2024-01-25T14:25:35;11.80;72.30
19279;DHT22;9773;47.062;15.446;2024-01-25T14:28:03;11.80;71.60
19279;DHT22;9773;47.062;15.446;2024-01-25T14:30:29;11.80;72.20
19279;DHT22;9773;47.062;15.446;2024-01-25T14:32:56;11.80;72.00
19279;DHT22;9773;47.062;15.446;2024-01-25T14:35:24;11.80;71.60
19279;DHT22;9773;47.062;15.446;2024-01-25T14:37:56;11.80;71.50
19279;DHT22;9773;47.062;15.446;2024-01-25T14:40:24;11.70;71.60
19279;DHT22;9773;47.062;15.446;2024-01-25T14:42:56;11.70;71.50
19279;DHT22;9773;47.062;15.446;2024-01-25T14:45:22;11.70;71.10
19279;DHT22;9773;47.062;15.446;2024-01-25T14:47:48;11.70;71.70
19279;DHT22;9773;47.062;15.446;2024-01-25T14:50:14;11.70;72.10
19279;DHT22;9773;47.062;15.446;2024-01-25T14:52:40;11.60;70.50
19279;DHT22;9773;47.062;15.446;2024-01-25T14:55:05;11.70;70.20
19279;DHT22;9773;47.062;15.446;2024-01-25T14:57:31;11.70;69.40
19279;DHT22;9773;47.062;15.446;2024-01-25T14:59:59;11.70;69.20
19279;DHT22;9773;47.062;15.446;2024-01-25T15:02:26;11.60;69.00
19279;DHT22;9773;47.062;15.446;2024-01-25T15:04:51;11.60;69.10
19279;DHT22;9773;47.062;15.446;2024-01-25T15:07:17;11.60;69.10
19279;DHT22;9773;47.062;15.446;2024-01-25T15:09:47;11.50;68.80
19279;DHT22;9773;47.062;15.446;2024-01-25T15:12:14;11.40;69.00
19279;DHT22;9773;47.062;15.446;2024-01-25T15:14:40;11.40;69.30
19279;DHT22;9773;47.062;15.446;2024-01-25T15:17:06;11.30;69.70
19279;DHT22;9773;47.062;15.446;2024-01-25T15:19:32;11.20;69.60
19279;DHT22;9773;47.062;15.446;2024-01-25T15:21:58;11.20;69.40
19279;DHT22;9773;47.062;15.446;2024-01-25T15:24:23;11.20;69.00
19279;DHT22;9773;47.062;15.446;2024-01-25T15:26:49;11.10;69.50
19279;DHT22;9773;47.062;15.446;2024-01-25T15:29:15;11.00;69.00
19279;DHT22;9773;47.062;15.446;2024-01-25T15:31:41;11.20;68.10
19279;DHT22;9773;47.062;15.446;2024-01-25T15:34:07;11.10;67.90
19279;DHT22;9773;47.062;15.446;2024-01-25T15:36:32;11.10;67.80
19279;DHT22;9773;47.062;15.446;2024-01-25T15:39:00;11.10;67.80
19279;DHT22;9773;47.062;15.446;2024-01-25T15:41:29;11.10;68.00
19279;DHT22;9773;47.062;15.446;2024-01-25T15:43:56;11.00;68.50
19279;DHT22;9773;47.062;15.446;2024-01-25T15:46:22;10.90;68.00